Time;durP1;ratioP1;P1;durP2;ratioP2;P2;SDS_P1;SDS_P2;PMS_P1;PMS_P2;Temp;Humidity;BMP_temperature;BMP_pressure;BME280_temperature;BME280_humidity;BME280_pressure;Samples;Min_cycle;Max_cycle;Signal;HPM_P1;HPM_P2
2021/03/08 00:00:39;;;;;;;13.90;10.88;;;2.40;99.70;;;;;;4932817;29;20192;-75
2021/03/08 00:03:08;;;;;;;12.20;9.07;;;2.50;99.70;;;;;;4915505;28;20460;-75
2021/03/08 00:05:34;;;;;;;9.95;8.30;;;2.40;99.60;;;;;;4932346;29;20239;-76
2021/03/08 00:08:01;;;;;;;13.25;9.38;;;2.30;99.70;;;;;;4931110;28;20650;-76
2021/03/08 00:10:27;;;;;;;12.55;9.13;;;2.20;99.90;;;;;;4930961;29;20197;-76
2021/03/08 00:12:54;;;;;;;10.25;9.23;;;2.20;99.90;;;;;;4931175;28;20703;-75
2021/03/08 00:15:21;;;;;;;12.10;9.07;;;2.10;99.90;;;;;;4931493;29;20275;-76
2021/03/08 00:17:49;;;;;;;10.77;8.57;;;2.10;99.90;;;;;;4931394;28;20244;-76
2021/03/08 00:20:18;;;;;;;11.55;9.40;;;2.10;99.90;;;;;;4920682;29;20661;-75
2021/03/08 00:22:45;;;;;;;10.95;9.65;;;2.10;99.90;;;;;;4911893;29;20236;-76
2021/03/08 00:25:17;;;;;;;13.93;9.15;;;2.00;99.90;;;;;;4923103;29;20244;-76
2021/03/08 00:27:43;;;;;;;14.30;10.07;;;2.00;99.90;;;;;;4910933;29;20320;-76
2021/03/08 00:30:11;;;;;;;11.88;9.75;;;2.00;99.90;;;;;;4919202;29;20659;-76
2021/03/08 00:32:37;;;;;;;13.45;9.55;;;2.10;99.90;;;;;;4912034;29;20231;-76
2021/03/08 00:35:06;;;;;;;16.67;9.43;;;2.30;99.90;;;;;;4921813;29;20213;-75
2021/03/08 00:37:33;;;;;;;12.05;9.45;;;2.20;99.90;;;;;;4927860;29;20245;-76
2021/03/08 00:40:04;;;;;;;11.68;10.02;;;2.20;99.90;;;;;;4911296;29;20284;-75
2021/03/08 00:42:31;;;;;;;12.82;9.50;;;2.20;99.90;;;;;;4926487;29;20747;-75
2021/03/08 00:44:58;;;;;;;13.45;9.48;;;2.20;99.90;;;;;;4911532;29;20220;-76
2021/03/08 00:47:25;;;;;;;14.10;10.07;;;2.20;99.90;;;;;;4931202;28;20305;-76
2021/03/08 00:49:52;;;;;;;14.60;10.45;;;2.20;99.90;;;;;;4929727;29;20189;-76
2021/03/08 00:52:21;;;;;;;14.60;10.35;;;2.30;99.90;;;;;;4930560;28;20611;-76
2021/03/08 00:54:48;;;;;;;19.45;9.30;;;2.30;99.90;;;;;;4931784;29;20300;-77
2021/03/08 00:57:15;;;;;;;12.85;9.55;;;2.30;99.90;;;;;;4928576;29;20323;-76
2021/03/08 00:59:47;;;;;;;12.27;10.20;;;2.30;99.90;;;;;;4911161;29;20187;-76
2021/03/08 01:02:14;;;;;;;13.45;9.98;;;2.40;99.90;;;;;;4927545;28;20717;-77
2021/03/08 01:04:41;;;;;;;13.98;9.98;;;2.50;99.90;;;;;;4937308;28;20231;-76
2021/03/08 01:07:12;;;;;;;11.48;8.85;;;2.60;99.90;;;;;;4945713;29;20224;-76
2021/03/08 01:09:41;;;;;;;12.98;9.77;;;2.60;99.90;;;;;;4926357;29;20193;-75
2021/03/08 01:12:09;;;;;;;13.80;9.65;;;2.60;99.90;;;;;;4910916;29;20236;-75
2021/03/08 01:14:39;;;;;;;13.75;10.07;;;2.70;99.90;;;;;;4914938;29;20209;-75
2021/03/08 01:17:05;;;;;;;12.98;9.50;;;2.70;99.90;;;;;;4917174;29;20267;-76
2021/03/08 01:19:33;;;;;;;11.82;9.25;;;2.70;99.90;;;;;;4942848;29;20199;-75
2021/03/08 01:22:00;;;;;;;12.63;10.15;;;2.70;99.90;;;;;;4930958;28;20307;-77
2021/03/08 01:24:27;;;;;;;13.60;9.32;;;2.60;99.90;;;;;;4926608;29;20300;-76
2021/03/08 01:26:54;;;;;;;11.23;9.40;;;2.60;99.90;;;;;;4944102;28;20253;-77
2021/03/08 01:29:20;;;;;;;10.65;8.35;;;2.60;99.90;;;;;;4927876;29;20249;-77
2021/03/08 01:31:47;;;;;;;12.25;9.48;;;2.60;99.90;;;;;;4912111;29;20224;-75
2021/03/08 01:34:13;;;;;;;10.10;9.00;;;2.60;99.90;;;;;;4913643;29;20208;-76
2021/03/08 01:36:40;;;;;;;11.95;9.20;;;2.60;99.90;;;;;;4912424;29;20307;-75
2021/03/08 01:39:07;;;;;;;12.23;8.85;;;2.60;99.90;;;;;;4911510;29;20275;-75
2021/03/08 01:41:33;;;;;;;12.73;9.05;;;2.70;99.90;;;;;;4918613;29;20308;-76
2021/03/08 01:44:00;;;;;;;10.30;8.27;;;2.80;99.90;;;;;;4911150;29;20243;-76
2021/03/08 01:46:26;;;;;;;14.80;9.73;;;2.80;99.90;;;;;;4910506;29;20753;-76
2021/03/08 01:48:53;;;;;;;13.43;9.52;;;2.90;99.90;;;;;;4928972;29;20722;-76
2021/03/08 01:51:20;;;;;;;10.80;8.95;;;2.80;99.90;;;;;;4930691;28;20219;-74
2021/03/08 01:53:47;;;;;;;13.32;10.30;;;2.90;99.90;;;;;;4930617;29;20220;-76
2021/03/08 01:56:14;;;;;;;13.43;9.98;;;2.90;99.90;;;;;;4938917;28;20686;-75
2021/03/08 01:58:41;;;;;;;13.55;10.00;;;2.90;99.90;;;;;;4945069;29;20187;-76
2021/03/08 02:01:08;;;;;;;14.68;9.35;;;2.90;99.90;;;;;;4927644;28;20240;-76
2021/03/08 02:03:34;;;;;;;11.32;9.20;;;2.90;99.90;;;;;;4912112;29;20284;-76
2021/03/08 02:06:01;;;;;;;15.73;9.77;;;3.00;99.90;;;;;;4924197;28;20214;-76
2021/03/08 02:08:27;;;;;;;13.02;10.05;;;3.10;99.90;;;;;;4911149;29;20205;-77
2021/03/08 02:10:54;;;;;;;10.82;8.55;;;3.00;99.90;;;;;;4923477;28;20283;-76
2021/03/08 02:13:52;;;;;;;12.35;9.15;;;3.00;99.90;;;;;;4929205;29;20733;-77
2021/03/08 02:16:25;;;;;;;11.18;9.80;;;2.90;99.90;;;;;;4932463;28;20230;-76
2021/03/08 02:19:25;;;;;;;10.93;8.05;;;2.90;99.90;;;;;;4933031;29;20686;-76
2021/03/08 02:22:11;;;;;;;10.40;8.00;;;2.80;99.90;;;;;;4948339;28;20224;-76
2021/03/08 02:25:04;;;;;;;10.90;9.20;;;2.80;99.90;;;;;;4933176;29;20208;-76
2021/03/08 02:28:01;;;;;;;9.07;8.10;;;2.80;99.90;;;;;;4928523;28;20655;-75
2021/03/08 02:30:53;;;;;;;12.35;7.00;;;2.70;99.90;;;;;;4932951;29;20196;-76
2021/03/08 02:33:24;;;;;;;12.15;7.85;;;2.70;99.90;;;;;;4927383;29;20224;-75
2021/03/08 02:35:55;;;;;;;9.55;7.55;;;2.70;99.90;;;;;;4913541;28;20885;-77
2021/03/08 02:38:27;;;;;;;10.30;7.95;;;2.70;99.90;;;;;;4929789;29;20184;-75
2021/03/08 02:41:04;;;;;;;10.27;7.10;;;2.70;99.90;;;;;;4928654;28;20648;-76
2021/03/08 02:43:41;;;;;;;9.13;7.18;;;2.70;99.90;;;;;;4915588;29;20199;-75
2021/03/08 02:46:12;;;;;;;12.05;9.20;;;2.70;99.90;;;;;;4914637;28;20229;-75
2021/03/08 02:48:42;;;;;;;11.32;8.27;;;2.60;99.90;;;;;;4913753;29;20216;-75
2021/03/08 02:51:10;;;;;;;21.02;8.57;;;2.60;99.90;;;;;;4931642;28;20291;-75
2021/03/08 02:53:40;;;;;;;14.82;8.25;;;2.60;99.90;;;;;;4933936;29;20225;-76
2021/03/08 02:56:16;;;;;;;13.52;8.43;;;2.70;99.90;;;;;;4928607;28;20224;-76
2021/03/08 02:58:46;;;;;;;10.95;7.95;;;2.60;99.90;;;;;;4933404;29;20208;-76
2021/03/08 03:01:14;;;;;;;11.25;7.80;;;2.70;99.90;;;;;;4934305;28;20686;-76
2021/03/08 03:03:44;;;;;;;16.58;9.05;;;2.60;99.90;;;;;;4934618;29;20193;-75
2021/03/08 03:06:13;;;;;;;10.70;8.77;;;2.70;99.90;;;;;;4936140;28;20242;-76
2021/03/08 03:08:42;;;;;;;10.27;7.07;;;2.80;99.90;;;;;;4936021;29;20193;-76
2021/03/08 03:11:09;;;;;;;12.50;8.98;;;2.80;99.90;;;;;;4935829;28;20663;-76
2021/03/08 03:13:41;;;;;;;16.88;9.15;;;2.90;99.90;;;;;;4931162;29;20245;-75
2021/03/08 03:16:09;;;;;;;15.60;9.45;;;3.00;99.90;;;;;;4917149;29;20272;-76
2021/03/08 03:18:37;;;;;;;16.80;9.55;;;2.90;99.90;;;;;;4916343;29;20181;-77
2021/03/08 03:21:06;;;;;;;15.07;9.00;;;2.90;99.90;;;;;;4930192;28;20224;-75
2021/03/08 03:23:38;;;;;;;12.10;8.48;;;2.80;99.90;;;;;;4943531;23;20323;-88
2021/03/08 03:26:08;;;;;;;16.15;9.20;;;2.70;99.90;;;;;;4917521;29;20713;-84
2021/03/08 03:28:36;;;;;;;15.80;8.50;;;2.60;99.90;;;;;;4918514;29;20207;-85
2021/03/08 03:31:04;;;;;;;9.88;7.90;;;2.60;99.90;;;;;;4935820;29;20185;-85
2021/03/08 03:33:31;;;;;;;12.93;8.57;;;2.60;99.90;;;;;;4914922;29;20239;-84
2021/03/08 03:35:58;;;;;;;12.43;8.55;;;2.60;99.90;;;;;;4900264;29;20193;-84
2021/03/08 03:38:26;;;;;;;19.02;9.75;;;2.50;99.90;;;;;;4916606;29;20216;-83
2021/03/08 03:40:53;;;;;;;14.52;10.00;;;2.40;99.90;;;;;;4921779;29;20180;-84
2021/03/08 03:43:21;;;;;;;15.38;9.88;;;2.30;99.90;;;;;;4936340;29;20192;-85
2021/03/08 03:45:51;;;;;;;13.13;9.27;;;2.30;99.90;;;;;;4918841;29;20200;-84
2021/03/08 03:48:18;;;;;;;16.05;10.35;;;2.20;99.90;;;;;;4918885;29;20204;-86
2021/03/08 03:50:45;;;;;;;13.30;9.90;;;2.10;99.90;;;;;;4935541;29;20193;-85
2021/03/08 03:53:12;;;;;;;10.88;8.98;;;2.10;99.90;;;;;;4923168;29;20810;-88
2021/03/08 03:55:38;;;;;;;14.52;9.50;;;2.00;99.90;;;;;;4932040;29;20212;-86
2021/03/08 03:58:20;;;;;;;13.60;9.85;;;2.00;99.90;;;;;;4920519;29;20262;-86
2021/03/08 04:00:57;;;;;;;15.60;9.25;;;1.90;99.90;;;;;;4936232;29;20184;-87
2021/03/08 04:03:29;;;;;;;15.75;10.68;;;1.80;99.90;;;;;;4936401;29;20212;-86
2021/03/08 04:05:57;;;;;;;17.45;10.10;;;1.80;99.90;;;;;;4935248;29;20740;-86
2021/03/08 04:08:26;;;;;;;15.00;9.70;;;1.70;99.90;;;;;;4935562;29;20181;-86
2021/03/08 04:10:54;;;;;;;17.38;10.30;;;1.70;99.90;;;;;;4934677;29;20240;-83
2021/03/08 04:13:29;;;;;;;17.75;9.02;;;1.70;99.90;;;;;;4919101;29;20243;-81
2021/03/08 04:15:57;;;;;;;16.63;10.55;;;1.70;99.90;;;;;;4918766;29;20267;-84
2021/03/08 04:18:26;;;;;;;15.95;9.88;;;1.70;99.90;;;;;;4918830;29;20189;-83
2021/03/08 04:20:55;;;;;;;13.18;9.70;;;1.70;99.90;;;;;;4915510;29;20628;-85
2021/03/08 04:23:22;;;;;;;18.85;10.15;;;1.70;99.90;;;;;;4918508;29;20212;-82
2021/03/08 04:25:50;;;;;;;17.70;10.80;;;1.70;99.90;;;;;;4930456;28;20193;-87
2021/03/08 04:28:16;;;;;;;16.35;9.85;;;1.70;99.90;;;;;;4928620;29;20223;-89
2021/03/08 04:30:45;;;;;;;16.60;10.35;;;1.80;99.90;;;;;;4935881;29;20192;-81
2021/03/08 04:33:15;;;;;;;21.65;10.95;;;1.80;99.90;;;;;;4918118;29;20216;-85
2021/03/08 04:35:44;;;;;;;12.20;10.10;;;1.80;99.90;;;;;;4918445;29;20683;-88
2021/03/08 04:38:11;;;;;;;14.90;9.95;;;1.80;99.90;;;;;;4935220;29;20298;-85
2021/03/08 04:40:39;;;;;;;16.17;9.80;;;1.90;99.90;;;;;;4934970;29;20184;-85
2021/03/08 04:43:06;;;;;;;13.48;11.27;;;1.90;99.90;;;;;;4918249;29;20224;-84
2021/03/08 04:45:34;;;;;;;15.52;10.80;;;1.90;99.90;;;;;;4933737;29;20295;-86
2021/03/08 04:48:04;;;;;;;18.50;11.40;;;1.90;99.90;;;;;;4934590;29;20228;-86
2021/03/08 04:50:32;;;;;;;16.02;11.80;;;1.80;99.90;;;;;;4934048;29;20249;-84
2021/03/08 04:52:59;;;;;;;15.50;11.20;;;1.80;99.90;;;;;;4934910;28;20224;-86
2021/03/08 04:55:29;;;;;;;14.07;10.25;;;1.80;99.90;;;;;;4934822;29;20212;-85
2021/03/08 04:57:55;;;;;;;16.40;11.60;;;1.70;99.90;;;;;;4930317;29;20747;-87
2021/03/08 05:00:22;;;;;;;18.85;10.75;;;1.70;99.90;;;;;;4899886;29;20185;-85
2021/03/08 05:02:53;;;;;;;14.38;10.35;;;1.70;99.90;;;;;;4933333;29;20293;-88
2021/03/08 05:05:24;;;;;;;15.15;9.30;;;1.60;99.90;;;;;;4934236;29;20216;-85
2021/03/08 05:07:57;;;;;;;18.13;12.00;;;1.60;99.90;;;;;;4917436;29;20234;-86
2021/03/08 05:10:26;;;;;;;17.85;11.40;;;1.60;99.90;;;;;;4934789;29;20195;-86
2021/03/08 05:12:54;;;;;;;16.80;11.60;;;1.60;99.90;;;;;;4917504;29;20233;-84
2021/03/08 05:15:23;;;;;;;19.70;11.48;;;1.60;99.90;;;;;;4934876;29;20204;-83
2021/03/08 05:17:53;;;;;;;19.45;10.68;;;1.60;99.90;;;;;;4917478;29;20228;-87
2021/03/08 05:20:20;;;;;;;15.88;10.70;;;1.60;99.90;;;;;;4928890;29;20185;-86
2021/03/08 05:22:47;;;;;;;19.48;11.70;;;1.60;99.90;;;;;;4913956;28;20251;-89
2021/03/08 05:25:14;;;;;;;18.75;12.85;;;1.60;99.90;;;;;;4932950;29;20215;-84
2021/03/08 05:27:44;;;;;;;16.88;11.95;;;1.60;99.90;;;;;;4934171;29;20666;-87
2021/03/08 05:30:15;;;;;;;16.85;12.25;;;1.60;99.90;;;;;;4918171;29;20713;-87
2021/03/08 05:33:06;;;;;;;18.42;12.68;;;1.60;99.90;;;;;;4933785;29;20224;-85
2021/03/08 05:35:35;;;;;;;17.70;12.90;;;1.60;99.90;;;;;;4883532;29;20687;-83
2021/03/08 05:38:05;;;;;;;20.88;13.43;;;1.70;99.90;;;;;;4917984;29;20240;-87
2021/03/08 05:40:44;;;;;;;32.30;13.98;;;1.80;99.90;;;;;;4934452;29;20183;-89
2021/03/08 05:43:14;;;;;;;21.35;13.82;;;1.70;99.90;;;;;;4914785;29;20260;-87
2021/03/08 05:46:00;;;;;;;18.52;13.95;;;1.70;99.90;;;;;;4927051;29;20639;-87
2021/03/08 05:48:47;;;;;;;23.00;13.05;;;1.70;99.90;;;;;;4934579;29;20222;-86
2021/03/08 05:51:52;;;;;;;21.65;14.48;;;1.80;99.90;;;;;;4919219;29;20219;-84
2021/03/08 05:54:46;;;;;;;17.23;12.30;;;1.80;99.90;;;;;;4921496;29;20590;-85
2021/03/08 05:57:51;;;;;;;20.40;13.60;;;1.80;99.90;;;;;;4920679;29;20295;-85
2021/03/08 06:00:40;;;;;;;21.23;13.98;;;1.80;99.90;;;;;;4938586;29;20212;-86
2021/03/08 06:03:40;;;;;;;25.17;15.77;;;1.80;99.90;;;;;;4924186;29;20224;-85
2021/03/08 06:06:47;;;;;;;19.45;14.20;;;1.80;99.90;;;;;;4939198;28;20686;-83
2021/03/08 06:09:27;;;;;;;24.25;16.77;;;1.70;99.90;;;;;;4919324;29;20197;-85
2021/03/08 06:12:06;;;;;;;26.20;14.57;;;1.70;99.90;;;;;;4931180;28;20248;-85
2021/03/08 06:14:43;;;;;;;21.55;13.63;;;1.70;99.90;;;;;;4918673;29;20221;-88
2021/03/08 06:17:15;;;;;;;25.52;15.20;;;1.70;99.90;;;;;;4932381;29;20303;-85
2021/03/08 06:19:44;;;;;;;21.95;15.27;;;1.60;99.90;;;;;;4937520;29;20670;-86
2021/03/08 06:22:12;;;;;;;24.85;16.50;;;1.60;99.90;;;;;;4923056;29;20241;-90
2021/03/08 06:24:41;;;;;;;27.05;16.45;;;1.60;99.90;;;;;;4923785;29;20308;-87
2021/03/08 06:27:11;;;;;;;24.50;15.73;;;1.60;99.90;;;;;;4933260;29;20679;-84
2021/03/08 06:29:38;;;;;;;26.20;14.77;;;1.60;99.90;;;;;;4937634;29;20184;-83
2021/03/08 06:32:07;;;;;;;23.45;14.85;;;1.60;99.90;;;;;;4936669;28;20224;-82
2021/03/08 06:34:34;;;;;;;24.23;15.15;;;1.60;99.90;;;;;;4916494;29;20217;-85
2021/03/08 06:37:09;;;;;;;25.85;15.93;;;1.60;99.90;;;;;;4930242;29;20240;-84
2021/03/08 06:39:40;;;;;;;23.73;15.45;;;1.70;99.90;;;;;;4920641;29;20184;-86
2021/03/08 06:42:07;;;;;;;30.88;17.05;;;1.70;99.90;;;;;;4935025;29;20220;-86
2021/03/08 06:44:34;;;;;;;33.05;16.90;;;1.70;99.90;;;;;;4937433;29;20686;-85
2021/03/08 06:47:03;;;;;;;29.38;17.45;;;1.70;99.90;;;;;;4915766;29;20233;-87
2021/03/08 06:49:31;;;;;;;22.85;15.75;;;1.70;99.90;;;;;;4926055;29;20613;-85
2021/03/08 06:52:04;;;;;;;27.70;15.88;;;1.70;99.90;;;;;;4936632;28;20352;-88
2021/03/08 06:54:32;;;;;;;29.25;16.48;;;1.70;99.90;;;;;;4920084;29;20243;-87
2021/03/08 06:56:59;;;;;;;26.13;17.00;;;1.70;99.90;;;;;;4935859;29;20614;-85
2021/03/08 06:59:25;;;;;;;28.85;17.67;;;1.80;99.90;;;;;;4905434;29;20197;-85
2021/03/08 07:01:53;;;;;;;23.35;16.27;;;1.80;99.90;;;;;;4909637;29;20309;-84
2021/03/08 07:04:23;;;;;;;28.70;17.77;;;1.80;99.90;;;;;;4936433;29;20216;-81
2021/03/08 07:07:03;;;;;;;28.75;18.17;;;1.90;99.90;;;;;;4904215;29;20233;-85
2021/03/08 07:09:31;;;;;;;25.20;16.88;;;1.90;99.90;;;;;;4929527;29;20196;-85
2021/03/08 07:12:11;;;;;;;30.25;18.80;;;2.00;99.90;;;;;;4935461;29;20240;-83
2021/03/08 07:14:40;;;;;;;31.73;17.35;;;2.10;99.90;;;;;;4936577;29;20207;-83
2021/03/08 07:17:32;;;;;;;30.23;18.98;;;2.10;99.90;;;;;;4935081;29;20713;-84
2021/03/08 07:20:13;;;;;;;30.75;18.10;;;2.20;99.90;;;;;;4919717;29;20200;-83
2021/03/08 07:22:49;;;;;;;28.13;18.98;;;2.40;99.90;;;;;;4936326;29;20226;-86
2021/03/08 07:25:18;;;;;;;28.15;18.52;;;2.60;99.90;;;;;;4917248;29;20213;-85
2021/03/08 07:28:04;;;;;;;34.50;18.65;;;2.60;99.90;;;;;;4928621;29;20220;-87
2021/03/08 07:30:38;;;;;;;34.70;19.92;;;2.80;99.90;;;;;;4912680;29;20220;-85
2021/03/08 07:33:13;;;;;;;36.28;20.20;;;2.90;99.90;;;;;;4917021;29;20726;-84
2021/03/08 07:35:44;;;;;;;36.03;21.13;;;3.00;99.90;;;;;;4933410;29;20568;-88
2021/03/08 07:38:16;;;;;;;35.97;22.52;;;3.00;99.90;;;;;;4935709;29;20220;-89
2021/03/08 07:40:44;;;;;;;29.67;21.27;;;3.00;99.90;;;;;;4935259;29;20651;-88
2021/03/08 07:43:24;;;;;;;35.08;22.13;;;3.10;99.90;;;;;;4912746;29;20279;-85
2021/03/08 07:45:51;;;;;;;34.70;21.65;;;3.10;99.90;;;;;;4918824;28;20232;-85
2021/03/08 07:48:20;;;;;;;39.20;21.50;;;3.30;99.90;;;;;;4919153;29;20201;-83
2021/03/08 07:50:49;;;;;;;35.35;21.45;;;3.30;99.90;;;;;;4918754;29;20200;-83
2021/03/08 07:53:25;;;;;;;34.90;21.27;;;3.40;99.90;;;;;;4936242;29;20204;-85
2021/03/08 07:55:53;;;;;;;42.95;23.95;;;3.50;99.90;;;;;;4918614;29;20243;-86
2021/03/08 07:58:20;;;;;;;40.00;22.83;;;3.60;99.90;;;;;;4936219;29;20655;-84
2021/03/08 08:00:46;;;;;;;34.90;22.38;;;3.70;99.90;;;;;;4902454;29;20552;-84
2021/03/08 08:03:13;;;;;;;38.88;23.75;;;3.80;99.90;;;;;;4909455;29;20663;-86
2021/03/08 08:05:40;;;;;;;36.92;22.08;;;3.90;99.90;;;;;;4922105;29;20268;-86
2021/03/08 08:08:08;;;;;;;37.00;23.33;;;3.80;99.90;;;;;;4926319;29;20224;-85
2021/03/08 08:10:35;;;;;;;45.33;24.65;;;3.90;99.90;;;;;;4918228;29;20588;-85
2021/03/08 08:13:03;;;;;;;35.15;23.73;;;3.90;99.90;;;;;;4934996;29;20255;-85
2021/03/08 08:15:31;;;;;;;38.58;24.17;;;3.90;99.90;;;;;;4913344;29;20690;-84
2021/03/08 08:18:00;;;;;;;41.17;24.98;;;4.00;99.90;;;;;;4917744;29;20261;-82
2021/03/08 08:20:29;;;;;;;36.08;23.35;;;4.20;99.90;;;;;;4936515;29;20240;-86
2021/03/08 08:23:01;;;;;;;40.38;24.67;;;4.20;99.90;;;;;;4936264;29;20299;-85
2021/03/08 08:25:28;;;;;;;40.75;26.90;;;4.20;99.90;;;;;;4933241;29;20291;-82
2021/03/08 08:27:59;;;;;;;51.45;26.17;;;4.30;99.90;;;;;;4909124;29;20741;-85
2021/03/08 08:30:28;;;;;;;41.28;25.70;;;4.30;99.90;;;;;;4937570;29;20617;-87
2021/03/08 08:32:57;;;;;;;41.10;26.13;;;4.30;99.90;;;;;;4933867;29;20400;-83
2021/03/08 08:35:31;;;;;;;43.33;27.10;;;4.50;99.90;;;;;;4899078;29;20209;-84
2021/03/08 08:38:07;;;;;;;42.47;26.05;;;4.60;99.90;;;;;;4921749;29;20462;-85
2021/03/08 08:40:36;;;;;;;45.35;28.27;;;4.60;99.90;;;;;;4934704;29;20267;-85
2021/03/08 08:43:23;;;;;;;41.10;25.92;;;4.70;99.90;;;;;;4934760;29;20224;-83
2021/03/08 08:45:52;;;;;;;40.80;25.73;;;4.70;99.90;;;;;;4935155;28;20195;-84
2021/03/08 08:48:22;;;;;;;44.88;27.25;;;4.70;99.90;;;;;;4937170;29;20188;-83
2021/03/08 08:50:53;;;;;;;41.95;27.42;;;4.70;99.90;;;;;;4904082;29;20196;-88
2021/03/08 08:53:36;;;;;;;43.70;26.13;;;4.70;99.90;;;;;;4919292;29;20208;-84
2021/03/08 08:56:04;;;;;;;41.10;27.10;;;4.80;99.90;;;;;;4917217;29;20244;-84
2021/03/08 08:58:35;;;;;;;45.15;27.92;;;4.90;99.90;;;;;;4936849;29;20273;-83
2021/03/08 09:01:09;;;;;;;45.17;27.90;;;5.10;99.90;;;;;;4934861;28;20261;-84
2021/03/08 09:04:15;;;;;;;45.92;25.90;;;5.10;99.90;;;;;;4934831;29;20192;-85
2021/03/08 09:06:44;;;;;;;47.58;30.70;;;5.20;99.90;;;;;;4916305;29;20654;-84
2021/03/08 09:09:19;;;;;;;51.33;29.27;;;5.20;99.90;;;;;;4934752;29;20220;-87
2021/03/08 09:11:58;;;;;;;46.13;27.52;;;5.10;99.90;;;;;;4933893;29;20301;-85
2021/03/08 09:14:47;;;;;;;47.78;29.95;;;5.00;99.90;;;;;;4933414;29;20222;-82
2021/03/08 09:17:18;;;;;;;47.50;26.00;;;5.00;99.90;;;;;;4914186;29;20225;-87
2021/03/08 09:19:49;;;;;;;44.33;26.75;;;5.00;99.90;;;;;;4888437;29;20198;-85
2021/03/08 09:22:28;;;;;;;44.55;27.13;;;5.00;99.90;;;;;;4929327;29;20311;-85
2021/03/08 09:24:59;;;;;;;45.53;27.60;;;5.00;99.90;;;;;;4917136;29;20223;-85
2021/03/08 09:27:34;;;;;;;47.47;27.60;;;5.10;99.90;;;;;;4916418;29;20224;-86
2021/03/08 09:30:11;;;;;;;44.92;28.60;;;5.20;99.90;;;;;;4917455;29;20602;-86
2021/03/08 09:32:54;;;;;;;49.25;28.40;;;5.30;99.90;;;;;;4956727;23;20314;-75
2021/03/08 09:35:24;;;;;;;45.63;27.17;;;5.50;99.90;;;;;;4917118;29;20299;-75
2021/03/08 09:37:52;;;;;;;44.20;26.98;;;;;;;;;;4933559;29;20311;-75
2021/03/08 09:40:24;;;;;;;39.92;29.60;;;5.50;99.90;;;;;;4919006;29;20532;-76
2021/03/08 09:42:51;;;;;;;39.83;24.80;;;5.50;99.90;;;;;;4915264;29;20239;-75
2021/03/08 09:45:36;;;;;;;41.58;25.88;;;5.50;99.90;;;;;;4917556;29;20216;-77
2021/03/08 09:48:04;;;;;;;44.15;26.35;;;5.60;99.90;;;;;;4952902;29;20247;-75
2021/03/08 09:50:38;;;;;;;42.65;26.98;;;5.70;99.90;;;;;;4936335;29;20196;-76
2021/03/08 09:53:06;;;;;;;49.75;26.85;;;5.70;99.90;;;;;;4935996;29;20220;-75
2021/03/08 09:55:34;;;;;;;49.45;28.70;;;5.70;99.90;;;;;;4952214;29;20220;-76
2021/03/08 09:58:18;;;;;;;39.38;26.00;;;5.60;99.90;;;;;;4952701;29;20243;-76
2021/03/08 10:00:48;;;;;;;42.47;27.50;;;5.70;99.90;;;;;;4953648;29;20709;-75
2021/03/08 10:03:15;;;;;;;44.28;26.85;;;5.70;99.90;;;;;;4952599;29;20303;-75
2021/03/08 10:05:49;;;;;;;36.17;24.10;;;5.60;99.90;;;;;;4951630;28;20216;-75
2021/03/08 10:08:18;;;;;;;42.85;26.25;;;5.60;99.90;;;;;;4947948;29;20208;-75
2021/03/08 10:10:52;;;;;;;39.53;25.35;;;5.60;99.90;;;;;;4937961;29;20188;-76
2021/03/08 10:13:21;;;;;;;43.72;26.50;;;5.60;99.90;;;;;;4953084;29;20220;-75
2021/03/08 10:15:53;;;;;;;38.05;25.52;;;5.70;99.90;;;;;;4951852;28;20191;-75
2021/03/08 10:18:30;;;;;;;39.58;26.00;;;5.70;99.90;;;;;;4932255;29;20208;-75
2021/03/08 10:20:57;;;;;;;39.03;24.80;;;5.70;99.90;;;;;;4946285;28;20187;-75
2021/03/08 10:23:25;;;;;;;47.53;27.15;;;5.80;99.90;;;;;;4935912;29;20686;-75
2021/03/08 10:25:52;;;;;;;40.00;25.58;;;5.80;99.90;;;;;;4951323;28;20200;-76
2021/03/08 10:28:19;;;;;;;39.50;23.35;;;5.80;99.90;;;;;;4952775;29;20180;-75
2021/03/08 10:30:48;;;;;;;43.80;25.95;;;5.80;99.90;;;;;;4935330;29;20220;-77
2021/03/08 10:33:19;;;;;;;39.35;25.60;;;5.80;99.90;;;;;;4952285;29;20210;-75
2021/03/08 10:35:48;;;;;;;39.38;23.73;;;5.90;99.90;;;;;;4953550;28;20208;-75
2021/03/08 10:38:31;;;;;;;37.65;24.60;;;6.00;99.80;;;;;;4956458;29;20298;-76
2021/03/08 10:41:00;;;;;;;39.40;25.70;;;6.00;99.90;;;;;;4954779;28;20343;-75
2021/03/08 10:43:29;;;;;;;42.08;24.58;;;6.00;99.90;;;;;;4956276;28;20539;-75
2021/03/08 10:46:00;;;;;;;35.80;24.15;;;5.90;99.90;;;;;;4955896;28;20192;-75
2021/03/08 10:48:28;;;;;;;40.60;24.17;;;5.90;99.90;;;;;;4938772;29;20198;-76
2021/03/08 10:50:57;;;;;;;40.05;25.67;;;5.90;99.90;;;;;;4938307;29;20278;-75
2021/03/08 10:54:01;;;;;;;40.67;25.55;;;5.80;99.90;;;;;;4956005;29;20208;-76
2021/03/08 10:56:31;;;;;;;37.45;24.58;;;5.80;99.90;;;;;;4930340;29;20689;-76
2021/03/08 10:58:59;;;;;;;40.55;24.05;;;5.90;99.90;;;;;;4940442;29;20203;-76
2021/03/08 11:01:27;;;;;;;38.92;25.08;;;5.80;99.90;;;;;;4956596;28;20235;-76
2021/03/08 11:03:53;;;;;;;39.97;25.25;;;5.90;99.90;;;;;;4940005;29;20215;-76
2021/03/08 11:06:22;;;;;;;40.42;25.33;;;5.90;99.90;;;;;;4929476;29;20220;-75
2021/03/08 11:09:01;;;;;;;36.58;23.30;;;5.90;99.90;;;;;;4938870;29;20279;-75
2021/03/08 11:11:33;;;;;;;41.05;25.95;;;5.90;99.90;;;;;;4955590;28;20247;-76
2021/03/08 11:14:05;;;;;;;38.15;24.73;;;6.00;99.90;;;;;;4923605;29;20228;-76
2021/03/08 11:16:33;;;;;;;31.25;22.50;;;5.90;99.90;;;;;;4956589;29;20230;-75
2021/03/08 11:19:14;;;;;;;39.40;22.45;;;6.00;99.90;;;;;;4955872;29;20183;-75
2021/03/08 11:21:41;;;;;;;37.15;22.20;;;6.20;99.30;;;;;;4938525;29;20249;-76
2021/03/08 11:24:16;;;;;;;35.40;23.83;;;6.00;99.90;;;;;;4938365;29;20638;-75
2021/03/08 11:27:03;;;;;;;43.42;25.23;;;6.00;99.90;;;;;;4937362;29;20239;-76
2021/03/08 11:29:29;;;;;;;36.47;23.15;;;6.00;99.90;;;;;;4955462;29;20580;-75
2021/03/08 11:31:56;;;;;;;40.78;24.25;;;6.00;99.90;;;;;;4955130;29;20224;-76
2021/03/08 11:34:38;;;;;;;33.78;21.67;;;6.10;99.90;;;;;;4955535;28;20290;-76
2021/03/08 11:37:17;;;;;;;34.40;23.27;;;6.10;99.90;;;;;;4935088;29;20220;-75
2021/03/08 11:39:52;;;;;;;39.05;23.40;;;6.10;99.90;;;;;;4949883;29;20568;-75
2021/03/08 11:42:20;;;;;;;32.70;22.25;;;6.10;99.90;;;;;;4938039;29;20270;-75
2021/03/08 11:44:47;;;;;;;30.15;20.98;;;6.20;99.90;;;;;;4955629;28;20218;-75
2021/03/08 11:47:14;;;;;;;37.50;22.77;;;6.20;99.90;;;;;;4937762;28;20596;-76
2021/03/08 11:49:42;;;;;;;30.02;21.15;;;6.30;99.90;;;;;;4954735;29;20188;-75
2021/03/08 11:52:09;;;;;;;32.55;21.05;;;6.30;99.80;;;;;;4954302;28;20231;-77
2021/03/08 11:54:36;;;;;;;35.20;21.73;;;6.40;99.60;;;;;;4937886;29;20235;-75
2021/03/08 11:57:05;;;;;;;32.95;22.55;;;6.60;99.60;;;;;;4945226;29;20218;-75
2021/03/08 11:59:32;;;;;;;32.20;22.73;;;6.50;99.50;;;;;;4937970;29;20188;-75
2021/03/08 12:01:58;;;;;;;34.50;21.35;;;6.60;99.10;;;;;;4955186;29;20214;-76
2021/03/08 12:04:25;;;;;;;27.88;20.00;;;6.60;98.70;;;;;;4939158;29;21088;-75
2021/03/08 12:06:52;;;;;;;23.02;16.88;;;6.60;97.70;;;;;;4938704;28;20227;-75
2021/03/08 12:09:19;;;;;;;28.95;18.98;;;6.60;98.00;;;;;;4939615;29;20274;-76
2021/03/08 12:11:47;;;;;;;28.48;18.38;;;6.70;97.50;;;;;;4953779;29;20255;-75
2021/03/08 12:14:13;;;;;;;28.33;19.20;;;6.70;98.20;;;;;;4955818;28;20219;-75
2021/03/08 12:16:39;;;;;;;26.85;19.75;;;6.70;98.70;;;;;;4953824;29;20307;-75
2021/03/08 12:19:06;;;;;;;29.58;20.42;;;6.70;98.70;;;;;;4953929;29;20238;-75
2021/03/08 12:21:33;;;;;;;33.90;20.75;;;6.80;98.30;;;;;;4953505;28;20215;-75
2021/03/08 12:24:00;;;;;;;28.10;19.25;;;6.80;98.70;;;;;;4937074;29;20278;-75
2021/03/08 12:26:27;;;;;;;27.80;18.80;;;6.80;97.60;;;;;;4954153;29;20219;-75
2021/03/08 12:28:53;;;;;;;33.70;20.30;;;6.90;97.60;;;;;;4955140;29;20272;-75
2021/03/08 12:31:20;;;;;;;30.40;19.55;;;7.00;97.30;;;;;;4954573;29;20234;-75
2021/03/08 12:33:47;;;;;;;24.27;18.63;;;7.20;95.40;;;;;;4954779;29;20748;-75
2021/03/08 12:36:15;;;;;;;31.00;20.02;;;7.10;96.20;;;;;;4953578;28;20227;-76
2021/03/08 12:38:45;;;;;;;30.08;18.73;;;7.00;96.40;;;;;;4937930;29;20259;-75
2021/03/08 12:41:12;;;;;;;34.17;21.13;;;7.00;96.50;;;;;;4952923;29;20662;-75
2021/03/08 12:43:39;;;;;;;30.55;20.58;;;6.90;96.80;;;;;;4954404;28;20216;-75
2021/03/08 12:46:06;;;;;;;38.75;23.83;;;6.90;97.60;;;;;;4954122;28;20214;-75
2021/03/08 12:48:33;;;;;;;37.63;23.15;;;7.00;97.60;;;;;;4934160;29;20192;-76
2021/03/08 12:50:59;;;;;;;31.05;21.75;;;7.00;97.60;;;;;;4945770;29;20196;-75
2021/03/08 12:53:26;;;;;;;28.00;20.40;;;7.10;97.40;;;;;;4954027;28;20195;-75
2021/03/08 12:55:53;;;;;;;37.22;23.08;;;7.20;97.30;;;;;;4952470;29;20549;-75
2021/03/08 12:58:19;;;;;;;34.38;22.00;;;7.30;96.50;;;;;;4936996;29;20184;-75
2021/03/08 13:00:46;;;;;;;30.17;22.42;;;7.20;96.70;;;;;;4936169;29;20192;-76